Time;durP1;ratioP1;P1;durP2;ratioP2;P2;SDS_P1;SDS_P2;PMS_P1;PMS_P2;Temp;Humidity;BMP_temperature;BMP_pressure;BME280_temperature;BME280_humidity;BME280_pressure;Samples;Min_cycle;Max_cycle;Signal;HPM_P1;HPM_P2
2021/05/21 00:02:16;;;;;;;2.45;1.48;;;12.10;99.90;;;;;;5011199;28;20053;-65
2021/05/21 00:05:20;;;;;;;2.25;1.35;;;12.10;99.90;;;;;;5010342;28;20133;-65
2021/05/21 00:08:28;;;;;;;2.42;1.27;;;12.00;99.90;;;;;;5019860;28;20040;-65
2021/05/21 00:11:32;;;;;;;2.83;1.48;;;12.00;99.90;;;;;;5013276;28;20040;-64
2021/05/21 00:14:37;;;;;;;2.67;1.40;;;12.00;99.90;;;;;;5010236;28;20045;-65
2021/05/21 00:17:42;;;;;;;4.93;1.70;;;11.90;99.90;;;;;;5010211;28;20069;-65
2021/05/21 00:20:47;;;;;;;4.20;1.55;;;11.90;99.90;;;;;;5016434;28;20048;-65
2021/05/21 00:23:51;;;;;;;6.10;1.60;;;11.90;99.90;;;;;;5020021;28;20052;-65
2021/05/21 00:26:56;;;;;;;4.90;1.20;;;11.90;99.90;;;;;;5010601;28;20037;-65
2021/05/21 00:30:00;;;;;;;2.35;1.38;;;11.80;99.90;;;;;;5025355;28;20037;-65
2021/05/21 00:33:05;;;;;;;3.40;1.70;;;11.70;99.90;;;;;;5010204;28;20049;-65
2021/05/21 00:36:08;;;;;;;3.53;1.80;;;11.70;99.90;;;;;;5016378;28;20048;-65
2021/05/21 00:39:12;;;;;;;5.88;1.67;;;11.60;99.90;;;;;;5021813;28;20057;-65
2021/05/21 00:42:17;;;;;;;10.23;1.48;;;11.60;99.90;;;;;;5009306;28;20513;-65
2021/05/21 00:45:22;;;;;;;3.50;1.50;;;11.60;99.90;;;;;;5028499;28;20041;-65
2021/05/21 00:48:26;;;;;;;5.38;1.90;;;11.70;99.90;;;;;;5027827;28;20503;-65
2021/05/21 00:51:29;;;;;;;4.68;1.80;;;11.60;99.90;;;;;;5028952;28;20064;-65
2021/05/21 00:54:35;;;;;;;2.95;1.85;;;11.70;99.90;;;;;;5026255;28;20040;-65
2021/05/21 00:57:43;;;;;;;5.55;1.77;;;11.70;99.90;;;;;;5028662;28;20075;-65
2021/05/21 01:00:47;;;;;;;3.45;1.35;;;11.70;99.90;;;;;;5028722;28;20052;-64
2021/05/21 01:03:51;;;;;;;2.50;1.27;;;11.70;99.90;;;;;;5009670;28;20503;-65
2021/05/21 01:06:55;;;;;;;4.55;1.35;;;11.70;99.90;;;;;;5013884;28;20053;-64
2021/05/21 01:09:59;;;;;;;4.25;1.23;;;11.60;99.90;;;;;;5010001;28;20049;-65
2021/05/21 01:13:03;;;;;;;2.85;1.67;;;11.50;99.90;;;;;;5010143;28;20037;-65
2021/05/21 01:16:07;;;;;;;2.70;1.10;;;11.40;99.90;;;;;;5030017;28;20053;-64
2021/05/21 01:19:11;;;;;;;2.58;1.10;;;11.30;99.90;;;;;;5031837;28;20045;-65
2021/05/21 01:22:17;;;;;;;6.38;1.33;;;11.30;99.90;;;;;;5033630;28;20040;-65
2021/05/21 01:25:22;;;;;;;6.05;1.42;;;11.30;99.90;;;;;;5015655;28;20040;-64
2021/05/21 01:28:26;;;;;;;4.10;1.20;;;11.30;99.90;;;;;;5024403;28;20036;-65
2021/05/21 01:31:32;;;;;;;5.53;2.17;;;11.30;99.90;;;;;;5032871;28;20041;-65
2021/05/21 01:34:38;;;;;;;6.47;1.58;;;11.30;99.90;;;;;;5013603;28;20392;-64
2021/05/21 01:37:46;;;;;;;2.63;1.38;;;11.30;99.90;;;;;;5023949;28;20080;-65
2021/05/21 01:40:52;;;;;;;5.07;1.73;;;11.30;99.90;;;;;;5032727;28;20049;-64
2021/05/21 01:43:56;;;;;;;6.85;2.28;;;11.30;99.90;;;;;;5013027;28;20037;-65
2021/05/21 01:47:01;;;;;;;4.15;2.00;;;11.20;99.90;;;;;;5015301;28;20049;-64
2021/05/21 01:50:05;;;;;;;5.50;2.17;;;11.00;99.90;;;;;;5011911;28;20045;-64
2021/05/21 01:53:10;;;;;;;7.80;3.63;;;10.90;99.90;;;;;;5012133;28;20057;-64
2021/05/21 01:56:16;;;;;;;5.65;2.28;;;10.70;99.90;;;;;;5012160;28;20045;-65
2021/05/21 01:59:24;;;;;;;10.70;2.65;;;10.60;99.90;;;;;;5014070;28;20045;-65
2021/05/21 02:02:28;;;;;;;5.47;2.30;;;10.40;99.90;;;;;;5032029;28;20032;-65
2021/05/21 02:05:33;;;;;;;7.63;2.63;;;10.30;99.90;;;;;;5016347;28;20377;-65
2021/05/21 02:08:38;;;;;;;6.72;2.58;;;10.20;99.90;;;;;;5015353;28;20060;-65
2021/05/21 02:11:42;;;;;;;8.32;2.78;;;10.30;99.90;;;;;;5031722;28;20052;-65
2021/05/21 02:14:46;;;;;;;5.32;3.25;;;10.30;99.90;;;;;;5013934;28;20049;-65
2021/05/21 02:17:50;;;;;;;6.78;2.90;;;10.30;99.90;;;;;;5016163;28;20048;-65
2021/05/21 02:20:55;;;;;;;4.85;2.88;;;10.30;99.90;;;;;;5011706;28;20049;-65
2021/05/21 02:24:00;;;;;;;4.88;2.10;;;10.30;99.90;;;;;;5030732;28;20052;-65
2021/05/21 02:27:06;;;;;;;10.35;2.72;;;10.20;99.90;;;;;;5025239;28;20041;-65
2021/05/21 02:30:10;;;;;;;5.03;2.00;;;10.20;99.90;;;;;;5013361;28;20233;-65
2021/05/21 02:33:15;;;;;;;4.55;2.20;;;10.20;99.90;;;;;;5028608;28;20117;-65
2021/05/21 02:36:19;;;;;;;6.93;2.53;;;10.10;99.90;;;;;;5016348;28;20075;-64
2021/05/21 02:39:23;;;;;;;3.92;2.13;;;10.00;99.90;;;;;;5014348;28;20056;-65
2021/05/21 02:42:28;;;;;;;4.55;1.85;;;9.90;99.90;;;;;;5030560;28;20040;-65
2021/05/21 02:45:32;;;;;;;4.38;1.98;;;9.90;99.90;;;;;;5023500;28;20060;-65
2021/05/21 02:48:36;;;;;;;4.13;2.00;;;9.90;99.90;;;;;;5029411;28;20042;-65
2021/05/21 02:51:41;;;;;;;9.15;2.97;;;9.80;99.90;;;;;;5011416;28;20049;-65
2021/05/21 02:54:45;;;;;;;4.10;2.15;;;9.70;99.90;;;;;;5014499;28;20049;-65
2021/05/21 02:57:49;;;;;;;7.63;2.50;;;9.60;99.90;;;;;;5018751;28;20053;-65
2021/05/21 03:00:53;;;;;;;6.03;2.50;;;9.60;99.90;;;;;;5030592;28;20046;-65
2021/05/21 03:03:57;;;;;;;6.13;2.88;;;9.60;99.90;;;;;;5027811;28;20037;-64
2021/05/21 03:07:01;;;;;;;4.80;2.40;;;9.60;99.90;;;;;;5010105;28;20052;-65
2021/05/21 03:10:07;;;;;;;5.70;3.00;;;9.60;99.90;;;;;;5013391;28;20040;-64
2021/05/21 03:13:11;;;;;;;5.47;3.30;;;9.60;99.90;;;;;;5030076;28;20044;-65
2021/05/21 03:16:15;;;;;;;5.22;3.42;;;9.60;99.90;;;;;;5022644;28;20042;-65
2021/05/21 03:19:20;;;;;;;9.98;3.30;;;9.50;99.90;;;;;;5011043;28;20045;-65
2021/05/21 03:22:24;;;;;;;12.35;3.25;;;9.60;99.90;;;;;;5010826;28;20030;-65
2021/05/21 03:25:28;;;;;;;7.20;3.00;;;9.60;99.90;;;;;;5019616;28;20059;-65
2021/05/21 03:28:31;;;;;;;5.70;2.88;;;9.60;99.90;;;;;;5016566;28;20039;-65
2021/05/21 03:31:36;;;;;;;5.45;2.40;;;9.60;99.90;;;;;;5030473;28;20048;-65
2021/05/21 03:34:40;;;;;;;5.40;2.75;;;9.60;99.90;;;;;;5029618;28;20499;-65
2021/05/21 03:37:44;;;;;;;4.15;2.83;;;9.60;99.90;;;;;;5029777;28;20049;-65
2021/05/21 03:40:48;;;;;;;5.38;2.65;;;9.60;99.90;;;;;;5010505;28;20042;-65
2021/05/21 03:43:52;;;;;;;5.97;2.70;;;9.70;99.90;;;;;;5010526;28;20053;-65
2021/05/21 03:47:01;;;;;;;5.32;2.90;;;9.70;99.90;;;;;;5014185;28;20049;-64
2021/05/21 03:50:07;;;;;;;5.38;2.90;;;9.50;99.90;;;;;;4998069;28;20508;-64
2021/05/21 03:53:11;;;;;;;8.50;4.45;;;9.40;99.90;;;;;;5025959;28;20065;-64
2021/05/21 03:56:16;;;;;;;11.93;3.67;;;9.30;99.90;;;;;;5024933;28;20042;-65
2021/05/21 03:59:21;;;;;;;5.88;3.00;;;9.30;99.90;;;;;;5011246;28;20049;-66
2021/05/21 04:02:25;;;;;;;6.00;3.17;;;9.20;99.90;;;;;;5028496;28;20052;-65
2021/05/21 04:05:32;;;;;;;8.07;3.30;;;9.30;99.90;;;;;;5024945;28;20420;-65
2021/05/21 04:08:36;;;;;;;4.45;3.00;;;9.40;99.90;;;;;;5016584;28;20042;-65
2021/05/21 04:11:40;;;;;;;5.95;3.28;;;9.50;99.90;;;;;;5010152;28;20049;-64
2021/05/21 04:14:44;;;;;;;7.55;2.80;;;9.60;99.90;;;;;;5019312;28;20056;-65
2021/05/21 04:17:48;;;;;;;5.13;2.63;;;9.60;99.90;;;;;;5029686;28;20053;-64
2021/05/21 04:20:52;;;;;;;6.95;3.40;;;9.80;99.90;;;;;;5010274;28;20400;-64
2021/05/21 04:23:57;;;;;;;6.88;3.03;;;9.90;99.90;;;;;;5012999;28;20050;-65
2021/05/21 04:27:01;;;;;;;5.25;2.90;;;9.90;99.90;;;;;;5009978;28;20048;-65
2021/05/21 04:30:07;;;;;;;7.70;2.58;;;10.00;99.90;;;;;;5029488;28;20515;-65
2021/05/21 04:33:11;;;;;;;8.55;2.65;;;10.10;99.90;;;;;;5026259;28;20048;-65
2021/05/21 04:36:15;;;;;;;3.08;2.30;;;10.30;99.90;;;;;;5023249;28;20053;-65
2021/05/21 04:39:19;;;;;;;4.78;2.65;;;10.80;99.90;;;;;;5016622;28;20388;-65
2021/05/21 04:42:23;;;;;;;7.30;2.50;;;11.60;99.90;;;;;;5028238;28;20060;-65
2021/05/21 04:45:27;;;;;;;8.18;2.80;;;13.10;99.90;;;;;;5026646;28;20048;-65
2021/05/21 04:48:31;;;;;;;8.07;2.00;;;14.60;99.90;;;;;;5028944;28;20044;-65
2021/05/21 04:51:35;;;;;;;7.13;2.95;;;14.50;99.90;;;;;;5025471;28;20744;-65
2021/05/21 04:54:40;;;;;;;6.78;2.40;;;15.40;99.90;;;;;;5024787;28;20044;-65
2021/05/21 04:57:49;;;;;;;6.93;2.90;;;12.70;99.90;;;;;;5029463;28;20052;-65
2021/05/21 05:00:53;;;;;;;8.73;2.72;;;11.80;99.90;;;;;;5018046;28;20052;-65
2021/05/21 05:03:57;;;;;;;4.95;3.17;;;12.60;99.90;;;;;;5021969;28;20116;-65
2021/05/21 05:07:02;;;;;;;6.80;2.85;;;13.70;99.90;;;;;;5028841;28;20052;-65
2021/05/21 05:10:06;;;;;;;5.10;2.78;;;14.70;99.90;;;;;;5027543;28;20362;-65
2021/05/21 05:13:11;;;;;;;4.88;2.47;;;15.50;99.90;;;;;;5009108;28;20049;-65
2021/05/21 05:16:15;;;;;;;11.93;3.72;;;16.60;99.90;;;;;;5017350;28;20041;-65
2021/05/21 05:19:19;;;;;;;9.73;2.80;;;17.80;99.90;;;;;;5029343;28;20049;-66
2021/05/21 05:22:25;;;;;;;10.65;2.45;;;18.70;99.90;;;;;;5014636;28;20049;-65
2021/05/21 05:25:31;;;;;;;5.53;2.28;;;18.60;99.90;;;;;;5008806;28;20512;-65
2021/05/21 05:28:35;;;;;;;4.47;2.40;;;17.50;99.90;;;;;;5026437;28;21036;-65
2021/05/21 05:31:40;;;;;;;3.95;1.83;;;17.70;99.90;;;;;;5008450;28;20411;-65
2021/05/21 05:34:44;;;;;;;3.55;2.00;;;17.50;99.90;;;;;;5016750;28;20400;-65
2021/05/21 05:37:48;;;;;;;5.80;1.98;;;17.10;99.90;;;;;;5029584;28;20060;-66
2021/05/21 05:40:53;;;;;;;3.60;1.95;;;17.40;99.90;;;;;;5026187;28;20036;-66
2021/05/21 05:43:57;;;;;;;4.43;1.80;;;18.50;99.90;;;;;;5026877;28;20052;-66
2021/05/21 05:47:03;;;;;;;8.23;1.83;;;17.20;99.90;;;;;;5021077;28;20052;-66
2021/05/21 05:50:08;;;;;;;4.63;2.22;;;17.40;99.90;;;;;;5026973;28;20052;-65
2021/05/21 05:53:13;;;;;;;14.15;3.00;;;15.80;99.90;;;;;;5017605;28;20595;-65
2021/05/21 05:56:17;;;;;;;4.63;2.08;;;16.40;99.90;;;;;;5017820;28;20041;-65
2021/05/21 05:59:21;;;;;;;5.97;2.72;;;17.70;99.90;;;;;;5011637;28;20064;-65
2021/05/21 06:02:24;;;;;;;3.22;1.80;;;18.20;99.90;;;;;;5016673;28;20389;-65
2021/05/21 06:05:28;;;;;;;4.32;1.80;;;16.80;99.90;;;;;;5015703;28;20048;-65
2021/05/21 06:08:34;;;;;;;4.22;2.00;;;17.10;99.90;;;;;;5016991;28;20036;-65
2021/05/21 06:11:39;;;;;;;3.63;1.45;;;17.50;99.90;;;;;;5004744;28;20061;-65
2021/05/21 06:14:44;;;;;;;5.13;2.08;;;17.90;99.90;;;;;;5013756;28;20053;-65
2021/05/21 06:17:53;;;;;;;3.75;1.52;;;18.60;99.90;;;;;;5026819;28;20049;-65
2021/05/21 06:20:57;;;;;;;6.40;1.88;;;19.90;99.90;;;;;;5012885;28;20056;-65
2021/05/21 06:24:03;;;;;;;4.68;1.77;;;19.50;99.90;;;;;;5025644;28;20049;-65
2021/05/21 06:30:14;;;;;;;5.32;2.00;;;20.10;99.90;;;;;;5029722;28;20044;-66
2021/05/21 06:33:20;;;;;;;6.15;1.65;;;20.80;99.90;;;;;;5026210;28;20338;-66
2021/05/21 06:36:26;;;;;;;3.72;1.98;;;18.10;99.90;;;;;;5025105;28;20052;-65
2021/05/21 06:39:30;;;;;;;10.80;2.63;;;17.70;99.90;;;;;;5028461;28;20122;-66
2021/05/21 06:42:34;;;;;;;4.93;1.80;;;17.40;99.90;;;;;;5026326;28;20056;-65
2021/05/21 06:45:41;;;;;;;5.70;1.83;;;17.40;99.90;;;;;;5028087;28;20037;-65
2021/05/21 06:48:46;;;;;;;4.90;1.65;;;18.90;99.90;;;;;;5026244;28;20519;-65
2021/05/21 06:51:51;;;;;;;4.80;1.88;;;18.70;99.90;;;;;;5016336;28;20036;-67
2021/05/21 06:54:55;;;;;;;5.15;1.73;;;19.90;99.90;;;;;;5016087;28;20052;-65
2021/05/21 06:58:00;;;;;;;5.32;1.83;;;18.90;99.90;;;;;;5020050;28;20049;-65
2021/05/21 07:01:05;;;;;;;2.65;1.67;;;18.30;99.90;;;;;;5016685;28;20072;-65
2021/05/21 07:04:12;;;;;;;4.10;1.73;;;19.00;99.90;;;;;;5018609;28;20048;-66
2021/05/21 07:07:16;;;;;;;4.55;1.77;;;18.80;99.90;;;;;;5015290;28;20039;-66
2021/05/21 07:10:21;;;;;;;3.75;1.85;;;18.60;99.90;;;;;;5015152;28;20037;-65
2021/05/21 07:13:29;;;;;;;2.90;1.60;;;18.50;99.90;;;;;;5017606;28;20516;-66
2021/05/21 07:16:33;;;;;;;6.18;2.20;;;19.10;99.90;;;;;;5022223;28;20052;-66
2021/05/21 07:19:38;;;;;;;4.85;2.00;;;20.90;99.90;;;;;;5026303;28;20044;-66
2021/05/21 07:22:43;;;;;;;7.57;2.15;;;21.80;99.90;;;;;;5023336;28;20048;-66
2021/05/21 07:25:49;;;;;;;3.30;1.95;;;21.10;99.90;;;;;;5017284;28;20088;-66
2021/05/21 07:28:54;;;;;;;3.88;1.67;;;21.60;99.90;;;;;;5017751;28;20060;-65
2021/05/21 07:31:59;;;;;;;5.47;2.17;;;22.10;99.90;;;;;;5016661;28;20349;-66
2021/05/21 07:35:05;;;;;;;8.52;2.20;;;21.10;99.80;;;;;;5011443;28;20057;-66
2021/05/21 07:38:10;;;;;;;4.22;2.30;;;22.00;99.90;;;;;;5025318;28;20510;-65
2021/05/21 07:41:18;;;;;;;5.15;1.98;;;23.80;97.80;;;;;;5024971;28;20056;-66
2021/05/21 07:44:22;;;;;;;4.68;1.98;;;24.30;97.10;;;;;;5018831;28;20064;-66
2021/05/21 07:47:27;;;;;;;4.65;2.15;;;24.10;96.80;;;;;;5018013;28;20060;-66
2021/05/21 07:50:31;;;;;;;7.10;2.15;;;24.60;96.40;;;;;;5022000;28;20499;-65
2021/05/21 07:53:36;;;;;;;5.45;2.03;;;23.80;96.60;;;;;;5028084;28;20052;-66
2021/05/21 07:56:40;;;;;;;4.72;1.75;;;24.20;96.00;;;;;;5015167;28;20045;-66
2021/05/21 07:59:45;;;;;;;5.78;2.20;;;23.80;96.40;;;;;;5021416;28;20658;-65
2021/05/21 08:02:50;;;;;;;7.50;2.20;;;20.90;99.50;;;;;;5013601;28;20060;-66
2021/05/21 08:05:57;;;;;;;7.43;2.30;;;20.40;99.90;;;;;;5010947;28;20421;-67
2021/05/21 08:09:04;;;;;;;7.07;2.15;;;19.60;99.90;;;;;;5011860;28;20535;-66
2021/05/21 08:12:10;;;;;;;6.90;1.98;;;20.50;99.90;;;;;;5023069;28;20052;-67
2021/05/21 08:15:15;;;;;;;7.00;2.53;;;22.00;99.60;;;;;;5021826;28;20048;-67
2021/05/21 08:18:19;;;;;;;3.85;2.17;;;23.40;97.50;;;;;;5025942;28;20049;-67
2021/05/21 08:21:25;;;;;;;5.55;1.77;;;24.20;97.00;;;;;;5024460;28;20060;-68
2021/05/21 08:24:30;;;;;;;4.13;2.20;;;23.50;97.00;;;;;;5026718;28;20048;-66
2021/05/21 08:27:35;;;;;;;5.88;2.30;;;24.00;97.30;;;;;;5017691;28;20504;-66
2021/05/21 08:30:40;;;;;;;2.90;1.75;;;27.00;94.00;;;;;;5021737;28;20048;-66
2021/05/21 08:33:44;;;;;;;5.97;1.98;;;26.70;93.30;;;;;;5020517;28;20065;-66
2021/05/21 08:36:50;;;;;;;3.58;1.50;;;23.90;94.40;;;;;;5010567;28;20048;-66
2021/05/21 08:39:55;;;;;;;3.63;1.50;;;24.30;93.90;;;;;;5026530;28;20060;-67
2021/05/21 08:42:59;;;;;;;8.30;2.05;;;26.40;93.10;;;;;;5009485;28;20500;-66
2021/05/21 08:46:04;;;;;;;4.32;1.75;;;25.60;92.90;;;;;;5025103;28;20045;-66
2021/05/21 08:49:08;;;;;;;3.20;1.35;;;26.40;92.10;;;;;;5016526;28;20053;-67
2021/05/21 08:52:12;;;;;;;6.50;1.73;;;25.30;93.40;;;;;;5024656;28;20064;-67
2021/05/21 08:55:18;;;;;;;5.45;1.52;;;26.90;92.10;;;;;;5028693;28;20048;-67
2021/05/21 08:58:22;;;;;;;3.92;1.20;;;27.80;91.20;;;;;;5010250;28;20057;-66
2021/05/21 09:01:27;;;;;;;3.90;1.35;;;28.00;90.80;;;;;;5019964;28;20058;-65
2021/05/21 09:04:49;;;;;;;3.53;1.38;;;25.90;90.50;;;;;;5029250;28;20044;-66
2021/05/21 09:07:55;;;;;;;4.50;1.35;;;25.30;91.70;;;;;;5028685;28;20072;-66
2021/05/21 09:10:59;;;;;;;2.42;1.17;;;23.90;91.70;;;;;;5021923;28;20048;-64
2021/05/21 09:14:10;;;;;;;3.10;1.10;;;24.80;91.50;;;;;;5020783;28;20065;-65
2021/05/21 09:17:24;;;;;;;3.28;1.08;;;23.20;91.10;;;;;;5025903;28;20053;-65
2021/05/21 09:20:33;;;;;;;5.40;1.35;;;26.90;90.20;;;;;;5018312;28;20392;-66
2021/05/21 09:23:38;;;;;;;2.28;0.98;;;26.10;87.60;;;;;;5008753;28;20053;-65
2021/05/21 09:26:45;;;;;;;2.35;0.80;;;25.10;85.30;;;;;;4997635;28;20049;-66
2021/05/21 09:29:52;;;;;;;2.88;0.82;;;25.60;85.50;;;;;;5010590;28;20053;-65
2021/05/21 09:33:06;;;;;;;1.75;0.70;;;26.60;81.90;;;;;;5013233;28;20037;-66
2021/05/21 09:36:11;;;;;;;1.77;0.80;;;25.00;79.50;;;;;;5023036;28;20041;-65
2021/05/21 09:39:15;;;;;;;4.10;0.93;;;25.00;84.00;;;;;;5022873;28;20037;-65
2021/05/21 09:42:20;;;;;;;6.13;0.80;;;26.30;80.80;;;;;;5014596;28;20041;-65
2021/05/21 09:45:26;;;;;;;4.53;0.80;;;26.80;78.20;;;;;;5012945;28;20561;-65
2021/05/21 09:48:30;;;;;;;3.08;1.13;;;27.50;77.20;;;;;;5021846;28;20075;-65
2021/05/21 09:51:35;;;;;;;3.50;0.80;;;27.30;74.50;;;;;;5015892;28;20057;-65
2021/05/21 09:54:56;;;;;;;3.85;0.95;;;26.50;82.10;;;;;;5017919;28;20369;-65
2021/05/21 09:58:00;;;;;;;3.47;1.25;;;27.50;76.50;;;;;;5033038;28;20491;-65
2021/05/21 10:01:24;;;;;;;1.00;0.60;;;28.50;76.40;;;;;;5032236;28;20044;-65
2021/05/21 10:04:30;;;;;;;2.50;0.80;;;28.70;70.20;;;;;;5020030;28;20041;-65
2021/05/21 10:07:34;;;;;;;2.92;0.77;;;30.20;73.20;;;;;;5012775;28;20045;-65
2021/05/21 10:10:38;;;;;;;1.27;0.63;;;29.80;73.70;;;;;;5013078;28;20045;-65
2021/05/21 10:13:45;;;;;;;3.10;0.98;;;31.70;67.60;;;;;;5014589;28;20403;-66
2021/05/21 10:16:49;;;;;;;1.70;0.60;;;31.80;68.20;;;;;;5025164;28;20061;-66
2021/05/21 10:19:55;;;;;;;1.45;0.85;;;29.10;72.50;;;;;;5013418;28;20125;-65
2021/05/21 10:23:02;;;;;;;2.90;0.82;;;29.40;68.70;;;;;;5013549;28;20049;-66
2021/05/21 10:26:15;;;;;;;4.85;1.00;;;30.20;66.90;;;;;;5016483;28;20049;-66
2021/05/21 10:29:24;;;;;;;2.17;0.95;;;30.40;68.10;;;;;;5032866;28;20044;-65
2021/05/21 10:32:30;;;;;;;3.17;0.85;;;30.50;68.80;;;;;;5032594;28;20048;-65
2021/05/21 10:35:34;;;;;;;10.63;1.05;;;26.40;70.80;;;;;;5027469;28;20070;-66
2021/05/21 10:39:08;;;;;;;1.45;0.73;;;28.80;71.30;;;;;;5029869;28;20052;-66
2021/05/21 10:42:43;;;;;;;3.13;0.75;;;29.90;67.70;;;;;;5031865;28;20048;-66
2021/05/21 10:45:59;;;;;;;3.05;0.65;;;31.20;66.50;;;;;;4999866;28;20053;-65
2021/05/21 10:49:04;;;;;;;1.23;0.70;;;31.10;64.30;;;;;;5009393;28;20049;-65
2021/05/21 10:52:09;;;;;;;5.00;1.10;;;29.00;67.40;;;;;;5018599;28;20049;-66
2021/05/21 10:55:14;;;;;;;2.65;0.70;;;27.40;68.50;;;;;;5011132;28;20040;-65
2021/05/21 10:58:30;;;;;;;2.55;0.80;;;27.70;68.40;;;;;;5028174;28;20056;-66
2021/05/21 11:01:44;;;;;;;3.20;0.68;;;29.10;64.60;;;;;;5022613;28;20061;-66
2021/05/21 11:04:50;;;;;;;4.90;0.90;;;30.30;66.50;;;;;;5022084;28;20064;-65
2021/05/21 11:08:10;;;;;;;1.75;0.65;;;30.10;65.60;;;;;;5027105;28;20037;-67
2021/05/21 11:11:15;;;;;;;1.10;0.50;;;28.30;62.90;;;;;;5007940;28;20496;-66
2021/05/21 11:14:20;;;;;;;1.83;0.50;;;29.20;60.50;;;;;;5023238;28;20045;-66
2021/05/21 11:17:26;;;;;;;0.88;0.50;;;30.00;63.20;;;;;;5020444;28;20060;-67
2021/05/21 11:20:53;;;;;;;2.90;0.50;;;30.70;59.40;;;;;;5020312;28;20499;-66
2021/05/21 11:24:06;;;;;;;0.88;0.50;;;28.40;59.40;;;;;;5022302;28;20049;-66
2021/05/21 11:27:12;;;;;;;4.30;0.60;;;26.60;61.90;;;;;;5012484;28;20044;-66
2021/05/21 11:30:18;;;;;;;2.88;0.60;;;26.60;63.10;;;;;;5026404;28;20044;-68
2021/05/21 11:33:22;;;;;;;2.42;0.55;;;26.60;64.90;;;;;;5018933;28;20040;-65
2021/05/21 11:36:30;;;;;;;3.45;0.70;;;27.10;65.10;;;;;;5012906;28;20401;-66
2021/05/21 11:39:37;;;;;;;2.22;0.60;;;25.30;67.70;;;;;;5010529;28;20097;-66
2021/05/21 11:42:46;;;;;;;4.15;0.52;;;25.80;65.60;;;;;;5021981;28;20040;-67
2021/05/21 11:45:52;;;;;;;1.50;0.60;;;27.10;68.50;;;;;;5028275;28;20052;-67
2021/05/21 11:48:56;;;;;;;3.67;0.60;;;28.80;66.70;;;;;;5024606;28;20504;-67
2021/05/21 11:52:06;;;;;;;2.78;0.50;;;29.40;67.20;;;;;;5013032;28;20044;-67
2021/05/21 11:55:11;;;;;;;1.15;0.52;;;29.10;65.20;;;;;;5014818;28;20052;-67
2021/05/21 11:58:26;;;;;;;4.38;0.80;;;26.30;66.70;;;;;;5013947;28;20049;-66
2021/05/21 12:01:32;;;;;;;2.08;0.65;;;24.60;70.60;;;;;;5009216;28;20428;-66
2021/05/21 12:04:40;;;;;;;2.00;0.85;;;24.80;71.30;;;;;;5008546;28;20481;-66
2021/05/21 12:07:44;;;;;;;3.22;0.60;;;23.70;70.90;;;;;;5009209;28;20056;-67
2021/05/21 12:10:57;;;;;;;6.80;0.90;;;23.10;72.80;;;;;;5008563;28;20052;-66
2021/05/21 12:14:08;;;;;;;2.47;0.68;;;25.20;70.00;;;;;;5007616;28;20056;-66
2021/05/21 12:17:12;;;;;;;1.60;0.50;;;26.40;70.00;;;;;;5009348;28;20404;-67
2021/05/21 12:20:20;;;;;;;1.50;0.70;;;25.70;67.10;;;;;;5010058;28;20056;-66
2021/05/21 12:23:39;;;;;;;2.72;0.52;;;26.60;67.50;;;;;;5024063;28;20036;-66
2021/05/21 12:26:45;;;;;;;4.38;1.05;;;27.80;67.90;;;;;;5013906;28;20048;-66
2021/05/21 12:29:49;;;;;;;2.25;0.75;;;27.90;66.90;;;;;;5025312;28;20041;-66
2021/05/21 12:32:54;;;;;;;4.13;0.82;;;25.10;68.10;;;;;;5019331;28;20396;-67
2021/05/21 12:36:17;;;;;;;1.58;0.47;;;25.90;68.40;;;;;;5018967;28;20056;-67
2021/05/21 12:39:30;;;;;;;1.98;0.70;;;26.50;65.30;;;;;;5018587;28;20053;-66
2021/05/21 12:42:46;;;;;;;0.60;0.30;;;25.20;64.30;;;;;;5021412;28;20040;-67
2021/05/21 12:46:04;;;;;;;2.22;0.65;;;25.90;63.90;;;;;;5020013;28;20056;-67
2021/05/21 12:49:09;;;;;;;1.73;0.68;;;26.00;65.80;;;;;;5011568;28;20507;-65
2021/05/21 12:52:13;;;;;;;2.15;0.70;;;24.90;65.40;;;;;;5027179;28;20045;-68
2021/05/21 12:55:18;;;;;;;5.43;0.85;;;26.00;66.60;;;;;;5023973;28;20040;-67
2021/05/21 12:58:22;;;;;;;2.28;0.70;;;26.20;67.60;;;;;;5022852;28;20033;-66
2021/05/21 13:01:26;;;;;;;4.78;0.80;;;26.10;66.90;;;;;;5023753;28;20499;-66
2021/05/21 13:04:31;;;;;;;8.90;1.40;;;26.70;68.30;;;;;;5025945;28;20072;-66
2021/05/21 13:07:36;;;;;;;2.80;0.60;;;25.60;68.70;;;;;;5023199;28;20041;-65
2021/05/21 13:10:41;;;;;;;5.32;0.70;;;23.60;70.60;;;;;;5025186;28;20048;-67
2021/05/21 13:13:46;;;;;;;3.20;1.10;;;23.00;73.00;;;;;;5025095;28;20045;-66
2021/05/21 13:16:54;;;;;;;3.88;0.85;;;24.00;72.50;;;;;;5020069;28;20060;-66
2021/05/21 13:20:01;;;;;;;8.30;1.17;;;23.30;70.10;;;;;;5029748;28;20053;-67
2021/05/21 13:23:10;;;;;;;7.82;2.00;;;23.60;72.70;;;;;;5023922;28;20061;-67
2021/05/21 13:26:15;;;;;;;6.15;0.90;;;23.40;72.60;;;;;;5017138;28;20051;-66
2021/05/21 13:29:21;;;;;;;4.25;0.77;;;23.00;72.40;;;;;;5021334;28;20060;-67
2021/05/21 13:32:27;;;;;;;4.05;1.10;;;23.40;70.40;;;;;;5015401;28;20496;-66
2021/05/21 13:35:33;;;;;;;3.72;0.88;;;23.60;69.90;;;;;;5023171;28;20048;-67
2021/05/21 13:38:38;;;;;;;7.95;1.88;;;23.60;70.40;;;;;;5014595;28;20057;-66
2021/05/21 13:41:43;;;;;;;13.45;1.45;;;24.40;67.90;;;;;;5029002;28;20510;-66
2021/05/21 13:44:47;;;;;;;5.28;1.27;;;23.50;69.50;;;;;;5032760;28;20060;-67
2021/05/21 13:47:54;;;;;;;6.97;0.70;;;23.60;70.70;;;;;;5018876;28;20053;-66
2021/05/21 13:50:58;;;;;;;2.75;0.70;;;23.60;69.40;;;;;;5011462;28;20044;-67
2021/05/21 13:54:04;;;;;;;4.25;0.60;;;23.30;69.60;;;;;;5028277;28;20053;-66
2021/05/21 13:57:08;;;;;;;2.60;0.80;;;23.10;68.40;;;;;;5018955;28;20048;-66
2021/05/21 14:00:14;;;;;;;2.90;0.93;;;22.80;69.50;;;;;;5018823;28;20393;-66
2021/05/21 14:03:19;;;;;;;4.40;0.90;;;23.10;69.20;;;;;;5032743;28;20048;-65
2021/05/21 14:06:23;;;;;;;2.58;0.60;;;23.10;69.60;;;;;;5026363;28;20049;-67
2021/05/21 14:09:28;;;;;;;2.83;0.77;;;23.40;71.20;;;;;;5018654;28;20790;-67
2021/05/21 14:12:32;;;;;;;2.55;0.70;;;23.00;69.00;;;;;;5031198;28;20048;-65
2021/05/21 14:15:36;;;;;;;5.20;0.93;;;22.80;70.00;;;;;;5016724;28;20045;-66
2021/05/21 14:18:40;;;;;;;5.93;0.75;;;23.00;71.10;;;;;;5020238;28;20369;-65
2021/05/21 14:21:44;;;;;;;3.67;0.90;;;22.50;68.40;;;;;;5031565;28;20491;-65
2021/05/21 14:24:50;;;;;;;2.53;0.80;;;22.40;69.00;;;;;;5018319;28;20052;-66
2021/05/21 14:27:56;;;;;;;3.88;1.02;;;22.10;70.70;;;;;;5023844;28;20049;-67
2021/05/21 14:31:00;;;;;;;6.07;1.10;;;22.00;70.20;;;;;;5031874;28;20049;-66
2021/05/21 14:34:07;;;;;;;1.63;0.75;;;22.10;69.60;;;;;;5010727;28;20049;-66
2021/05/21 14:37:11;;;;;;;4.70;1.60;;;22.40;70.90;;;;;;5018888;28;20052;-67
2021/05/21 14:40:15;;;;;;;5.10;1.40;;;22.70;70.70;;;;;;5026962;28;20503;-64
2021/05/21 14:43:19;;;;;;;8.23;1.00;;;22.40;69.80;;;;;;5030559;28;20056;-66
2021/05/21 14:46:23;;;;;;;4.40;0.90;;;22.40;70.70;;;;;;5029559;28;20396;-65
2021/05/21 14:49:28;;;;;;;5.25;1.27;;;22.10;71.80;;;;;;5013292;28;20037;-66
2021/05/21 14:52:32;;;;;;;7.40;1.35;;;22.10;70.10;;;;;;5019998;28;20056;-65
2021/05/21 14:55:36;;;;;;;4.18;0.82;;;22.00;68.80;;;;;;5018104;28;20044;-66
2021/05/21 14:58:40;;;;;;;3.35;0.90;;;21.90;71.70;;;;;;5024446;28;20508;-67
2021/05/21 15:01:45;;;;;;;6.50;1.00;;;22.30;73.50;;;;;;5012577;28;20045;-66
2021/05/21 15:04:56;;;;;;;4.97;1.35;;;22.30;71.30;;;;;;5024825;28;20048;-67
2021/05/21 15:08:02;;;;;;;4.50;1.27;;;21.90;72.10;;;;;;5015517;28;20060;-67
2021/05/21 15:11:08;;;;;;;4.20;1.02;;;21.70;72.80;;;;;;5029143;28;20306;-65
2021/05/21 15:14:14;;;;;;;5.97;1.42;;;21.60;73.40;;;;;;5026748;28;20129;-63
2021/05/21 15:26:52;;;;;;;5.38;0.90;;;21.60;73.20;;;;;;5023673;28;20053;-65
2021/05/21 15:29:59;;;;;;;4.00;0.85;;;21.30;74.30;;;;;;5030100;28;20503;-66
2021/05/21 15:33:03;;;;;;;3.03;1.05;;;21.30;74.70;;;;;;5025375;28;20044;-67
2021/05/21 15:36:08;;;;;;;12.88;1.50;;;21.40;74.80;;;;;;5025453;28;20052;-65
2021/05/21 15:39:12;;;;;;;6.57;1.27;;;21.30;74.30;;;;;;5029156;28;20396;-66
2021/05/21 15:45:28;;;;;;;7.53;1.30;;;21.30;74.30;;;;;;5017902;28;20524;-67
2021/05/21 15:48:37;;;;;;;6.18;1.33;;;21.20;76.20;;;;;;5024261;28;20049;-66
2021/05/21 15:54:54;;;;;;;4.30;1.25;;;21.40;76.20;;;;;;5014384;28;20048;-67
2021/05/21 15:58:48;;;;;;;4.63;1.33;;;21.10;73.90;;;;;;5015064;28;20052;-66
2021/05/21 16:01:26;;;;;;;5.43;1.17;;;21.30;75.50;;;;;;5019890;28;20415;-67
2021/05/21 16:04:31;;;;;;;3.45;0.82;;;20.80;75.80;;;;;;5018304;28;20044;-66
2021/05/21 16:07:36;;;;;;;6.05;1.00;;;20.70;77.00;;;;;;5016454;28;20044;-65
2021/05/21 16:10:40;;;;;;;6.25;1.52;;;20.50;76.60;;;;;;5020763;28;20029;-65
2021/05/21 16:13:45;;;;;;;5.57;1.20;;;20.20;76.60;;;;;;5001049;28;20041;-65
2021/05/21 16:16:50;;;;;;;3.95;1.02;;;20.10;77.90;;;;;;5029694;28;20041;-67
2021/05/21 16:19:54;;;;;;;5.80;1.23;;;20.10;79.80;;;;;;5013609;28;20049;-66
2021/05/21 16:23:01;;;;;;;3.58;0.73;;;20.20;78.30;;;;;;5009394;28;20057;-67
2021/05/21 16:26:07;;;;;;;12.35;1.40;;;20.20;80.20;;;;;;5026135;28;20064;-66
2021/05/21 16:29:12;;;;;;;6.28;1.25;;;20.10;79.50;;;;;;5016659;28;20052;-65